sensor_id;sensor_type;location;lat;lon;timestamp;temperature;humidity
10864;DHT22;5485;37.558;126.950;2023-02-23T00:02:16;3.30;1.00
10864;DHT22;5485;37.558;126.950;2023-02-23T00:04:43;3.20;1.00
10864;DHT22;5485;37.558;126.950;2023-02-23T00:07:10;3.20;1.00
10864;DHT22;5485;37.558;126.950;2023-02-23T00:09:37;3.10;1.00
10864;DHT22;5485;37.558;126.950;2023-02-23T00:12:05;3.00;1.00
10864;DHT22;5485;37.558;126.950;2023-02-23T00:14:36;2.80;1.00
10864;DHT22;5485;37.558;126.950;2023-02-23T00:17:03;2.80;1.00
10864;DHT22;5485;37.558;126.950;2023-02-23T00:19:30;2.70;1.00
10864;DHT22;5485;37.558;126.950;2023-02-23T00:21:58;2.70;1.00
10864;DHT22;5485;37.558;126.950;2023-02-23T00:24:26;2.80;1.00
10864;DHT22;5485;37.558;126.950;2023-02-23T00:26:53;3.00;1.00
10864;DHT22;5485;37.558;126.950;2023-02-23T00:29:22;3.40;1.00
10864;DHT22;5485;37.558;126.950;2023-02-23T00:31:52;3.70;1.00
10864;DHT22;5485;37.558;126.950;2023-02-23T00:34:21;3.90;1.00
10864;DHT22;5485;37.558;126.950;2023-02-23T00:36:52;4.50;1.00
10864;DHT22;5485;37.558;126.950;2023-02-23T00:39:21;4.50;1.00
10864;DHT22;5485;37.558;126.950;2023-02-23T00:41:52;4.50;1.00
10864;DHT22;5485;37.558;126.950;2023-02-23T00:44:23;4.20;1.00
10864;DHT22;5485;37.558;126.950;2023-02-23T00:46:50;4.00;1.00
10864;DHT22;5485;37.558;126.950;2023-02-23T00:49:19;3.70;1.00
10864;DHT22;5485;37.558;126.950;2023-02-23T00:51:46;3.60;1.00
10864;DHT22;5485;37.558;126.950;2023-02-23T00:54:14;3.40;1.00
10864;DHT22;5485;37.558;126.950;2023-02-23T00:56:41;3.50;1.00
10864;DHT22;5485;37.558;126.950;2023-02-23T00:59:09;3.60;1.00
10864;DHT22;5485;37.558;126.950;2023-02-23T01:01:37;4.00;1.00
10864;DHT22;5485;37.558;126.950;2023-02-23T01:04:04;4.50;1.00
10864;DHT22;5485;37.558;126.950;2023-02-23T01:06:33;5.20;1.00
10864;DHT22;5485;37.558;126.950;2023-02-23T01:08:59;5.50;1.00
10864;DHT22;5485;37.558;126.950;2023-02-23T01:11:30;6.40;1.00
10864;DHT22;5485;37.558;126.950;2023-02-23T01:13:58;6.70;1.00
10864;DHT22;5485;37.558;126.950;2023-02-23T01:16:29;6.70;1.00
10864;DHT22;5485;37.558;126.950;2023-02-23T01:18:58;6.50;1.00
10864;DHT22;5485;37.558;126.950;2023-02-23T01:21:29;6.80;1.00
10864;DHT22;5485;37.558;126.950;2023-02-23T01:23:56;6.90;1.00
10864;DHT22;5485;37.558;126.950;2023-02-23T01:26:26;7.00;1.00
10864;DHT22;5485;37.558;126.950;2023-02-23T01:28:59;7.10;1.00
10864;DHT22;5485;37.558;126.950;2023-02-23T01:31:28;7.30;1.00
10864;DHT22;5485;37.558;126.950;2023-02-23T01:34:00;7.20;1.00
10864;DHT22;5485;37.558;126.950;2023-02-23T01:36:31;7.30;1.00
10864;DHT22;5485;37.558;126.950;2023-02-23T01:38:58;7.60;1.00
10864;DHT22;5485;37.558;126.950;2023-02-23T01:41:27;8.10;1.00
10864;DHT22;5485;37.558;126.950;2023-02-23T01:46:40;8.60;1.00
10864;DHT22;5485;37.558;126.950;2023-02-23T01:49:17;8.00;1.00
10864;DHT22;5485;37.558;126.950;2023-02-23T01:51:59;7.50;1.00
10864;DHT22;5485;37.558;126.950;2023-02-23T01:54:34;7.70;1.00
10864;DHT22;5485;37.558;126.950;2023-02-23T01:57:04;7.30;1.00
10864;DHT22;5485;37.558;126.950;2023-02-23T01:59:40;7.40;1.00
10864;DHT22;5485;37.558;126.950;2023-02-23T02:02:08;7.00;1.00
10864;DHT22;5485;37.558;126.950;2023-02-23T02:04:37;7.00;1.00
10864;DHT22;5485;37.558;126.950;2023-02-23T02:07:30;6.90;1.00
10864;DHT22;5485;37.558;126.950;2023-02-23T02:10:00;6.70;1.00
10864;DHT22;5485;37.558;126.950;2023-02-23T02:12:47;6.70;1.00
10864;DHT22;5485;37.558;126.950;2023-02-23T02:15:17;6.80;1.00
10864;DHT22;5485;37.558;126.950;2023-02-23T02:24:05;6.20;1.00
10864;DHT22;5485;37.558;126.950;2023-02-23T02:32:37;6.60;1.00
10864;DHT22;5485;37.558;126.950;2023-02-23T02:35:27;6.50;1.00
10864;DHT22;5485;37.558;126.950;2023-02-23T02:38:19;6.70;1.00
10864;DHT22;5485;37.558;126.950;2023-02-23T02:41:02;6.50;1.00
10864;DHT22;5485;37.558;126.950;2023-02-23T02:43:39;6.30;1.00
10864;DHT22;5485;37.558;126.950;2023-02-23T02:46:39;6.40;1.00
10864;DHT22;5485;37.558;126.950;2023-02-23T02:52:10;6.50;1.00
10864;DHT22;5485;37.558;126.950;2023-02-23T02:54:51;6.10;1.00
10864;DHT22;5485;37.558;126.950;2023-02-23T02:57:25;6.00;1.00
10864;DHT22;5485;37.558;126.950;2023-02-23T02:59:53;6.00;1.00
10864;DHT22;5485;37.558;126.950;2023-02-23T03:02:40;5.90;1.00
10864;DHT22;5485;37.558;126.950;2023-02-23T03:11:26;5.70;1.00
10864;DHT22;5485;37.558;126.950;2023-02-23T03:27:34;6.30;1.00
10864;DHT22;5485;37.558;126.950;2023-02-23T03:30:14;6.20;1.00
10864;DHT22;5485;37.558;126.950;2023-02-23T03:33:11;6.10;1.00
10864;DHT22;5485;37.558;126.950;2023-02-23T03:36:04;6.10;1.00
10864;DHT22;5485;37.558;126.950;2023-02-23T03:39:08;6.20;1.00
10864;DHT22;5485;37.558;126.950;2023-02-23T03:41:55;6.20;1.00
10864;DHT22;5485;37.558;126.950;2023-02-23T03:44:44;6.20;1.00
10864;DHT22;5485;37.558;126.950;2023-02-23T03:47:34;6.40;1.00
10864;DHT22;5485;37.558;126.950;2023-02-23T03:50:52;6.40;1.00
10864;DHT22;5485;37.558;126.950;2023-02-23T03:53:59;6.50;1.00
10864;DHT22;5485;37.558;126.950;2023-02-23T03:56:50;6.30;1.00
10864;DHT22;5485;37.558;126.950;2023-02-23T03:59:46;6.50;1.00
10864;DHT22;5485;37.558;126.950;2023-02-23T04:02:34;6.50;1.00
10864;DHT22;5485;37.558;126.950;2023-02-23T04:05:21;6.60;1.00
10864;DHT22;5485;37.558;126.950;2023-02-23T04:08:12;6.70;1.00
10864;DHT22;5485;37.558;126.950;2023-02-23T04:16:59;6.60;1.00
10864;DHT22;5485;37.558;126.950;2023-02-23T04:19:28;6.60;1.00
10864;DHT22;5485;37.558;126.950;2023-02-23T04:21:54;6.70;1.00
10864;DHT22;5485;37.558;126.950;2023-02-23T04:24:21;6.70;1.00
10864;DHT22;5485;37.558;126.950;2023-02-23T04:26:48;6.80;1.00
10864;DHT22;5485;37.558;126.950;2023-02-23T04:29:15;6.70;1.00
10864;DHT22;5485;37.558;126.950;2023-02-23T04:31:42;6.90;1.00
10864;DHT22;5485;37.558;126.950;2023-02-23T04:34:09;7.00;1.00
10864;DHT22;5485;37.558;126.950;2023-02-23T04:36:36;7.20;1.00
10864;DHT22;5485;37.558;126.950;2023-02-23T04:39:03;7.20;1.00
10864;DHT22;5485;37.558;126.950;2023-02-23T04:41:30;7.30;1.00
10864;DHT22;5485;37.558;126.950;2023-02-23T04:43:57;7.40;1.00
10864;DHT22;5485;37.558;126.950;2023-02-23T04:46:23;7.40;1.00
10864;DHT22;5485;37.558;126.950;2023-02-23T04:48:51;7.30;1.00
10864;DHT22;5485;37.558;126.950;2023-02-23T04:51:18;7.30;1.00
10864;DHT22;5485;37.558;126.950;2023-02-23T04:53:44;7.30;1.00
10864;DHT22;5485;37.558;126.950;2023-02-23T04:56:11;7.00;1.00
10864;DHT22;5485;37.558;126.950;2023-02-23T04:58:38;7.00;1.00
10864;DHT22;5485;37.558;126.950;2023-02-23T05:01:06;7.10;1.00
10864;DHT22;5485;37.558;126.950;2023-02-23T05:03:36;7.30;1.00
10864;DHT22;5485;37.558;126.950;2023-02-23T05:06:03;7.40;1.00
10864;DHT22;5485;37.558;126.950;2023-02-23T05:08:30;7.40;1.00
10864;DHT22;5485;37.558;126.950;2023-02-23T05:10:57;7.30;1.00
10864;DHT22;5485;37.558;126.950;2023-02-23T05:13:24;7.30;1.00
10864;DHT22;5485;37.558;126.950;2023-02-23T05:15:55;7.30;1.00
10864;DHT22;5485;37.558;126.950;2023-02-23T05:18:23;7.50;1.00
10864;DHT22;5485;37.558;126.950;2023-02-23T05:20:53;7.70;1.00
10864;DHT22;5485;37.558;126.950;2023-02-23T05:23:26;7.80;1.00
10864;DHT22;5485;37.558;126.950;2023-02-23T05:25:55;7.70;1.00
10864;DHT22;5485;37.558;126.950;2023-02-23T05:28:26;7.70;1.00
10864;DHT22;5485;37.558;126.950;2023-02-23T05:30:53;7.50;1.00
10864;DHT22;5485;37.558;126.950;2023-02-23T05:33:19;7.60;1.00
10864;DHT22;5485;37.558;126.950;2023-02-23T05:35:47;7.50;1.00
10864;DHT22;5485;37.558;126.950;2023-02-23T05:38:14;7.50;1.00
10864;DHT22;5485;37.558;126.950;2023-02-23T05:40:41;7.60;1.00
10864;DHT22;5485;37.558;126.950;2023-02-23T05:43:08;7.50;1.00
10864;DHT22;5485;37.558;126.950;2023-02-23T05:45:39;7.40;1.00
10864;DHT22;5485;37.558;126.950;2023-02-23T05:48:07;7.60;1.00
10864;DHT22;5485;37.558;126.950;2023-02-23T05:50:35;7.70;1.00
10864;DHT22;5485;37.558;126.950;2023-02-23T05:53:02;7.80;1.00
10864;DHT22;5485;37.558;126.950;2023-02-23T05:55:29;7.80;1.00
10864;DHT22;5485;37.558;126.950;2023-02-23T05:57:56;7.60;1.00
10864;DHT22;5485;37.558;126.950;2023-02-23T06:00:23;7.50;1.00
10864;DHT22;5485;37.558;126.950;2023-02-23T06:02:50;7.60;1.00
10864;DHT22;5485;37.558;126.950;2023-02-23T06:05:18;7.60;1.00
10864;DHT22;5485;37.558;126.950;2023-02-23T06:07:45;7.60;1.00
10864;DHT22;5485;37.558;126.950;2023-02-23T06:10:12;7.60;1.00
10864;DHT22;5485;37.558;126.950;2023-02-23T06:12:39;7.60;1.00
10864;DHT22;5485;37.558;126.950;2023-02-23T06:15:06;7.50;1.00
10864;DHT22;5485;37.558;126.950;2023-02-23T06:17:35;7.60;1.00
10864;DHT22;5485;37.558;126.950;2023-02-23T06:20:03;7.70;1.00
10864;DHT22;5485;37.558;126.950;2023-02-23T06:22:30;7.60;1.00
10864;DHT22;5485;37.558;126.950;2023-02-23T06:24:57;7.50;1.00
10864;DHT22;5485;37.558;126.950;2023-02-23T06:27:24;7.40;1.00
10864;DHT22;5485;37.558;126.950;2023-02-23T06:29:51;7.50;1.00
10864;DHT22;5485;37.558;126.950;2023-02-23T06:32:18;7.60;1.00
10864;DHT22;5485;37.558;126.950;2023-02-23T06:34:45;7.70;1.00
10864;DHT22;5485;37.558;126.950;2023-02-23T06:37:12;7.80;1.00
10864;DHT22;5485;37.558;126.950;2023-02-23T06:39:39;7.90;1.00
10864;DHT22;5485;37.558;126.950;2023-02-23T06:42:06;7.90;1.00
10864;DHT22;5485;37.558;126.950;2023-02-23T06:44:32;7.80;1.00
10864;DHT22;5485;37.558;126.950;2023-02-23T06:47:02;7.80;1.00
10864;DHT22;5485;37.558;126.950;2023-02-23T06:49:30;7.80;1.00
10864;DHT22;5485;37.558;126.950;2023-02-23T06:51:57;7.80;1.00
10864;DHT22;5485;37.558;126.950;2023-02-23T06:54:25;7.80;1.00
10864;DHT22;5485;37.558;126.950;2023-02-23T06:56:52;7.80;1.00
10864;DHT22;5485;37.558;126.950;2023-02-23T06:59:21;7.80;1.00
10864;DHT22;5485;37.558;126.950;2023-02-23T07:01:49;7.70;1.00
10864;DHT22;5485;37.558;126.950;2023-02-23T07:04:16;7.80;1.00
10864;DHT22;5485;37.558;126.950;2023-02-23T07:06:43;7.80;1.00
10864;DHT22;5485;37.558;126.950;2023-02-23T07:09:10;7.90;1.00
10864;DHT22;5485;37.558;126.950;2023-02-23T07:11:38;7.90;1.00
10864;DHT22;5485;37.558;126.950;2023-02-23T07:14:07;7.80;1.00
10864;DHT22;5485;37.558;126.950;2023-02-23T07:16:39;7.90;1.00
10864;DHT22;5485;37.558;126.950;2023-02-23T07:19:06;7.80;1.00
10864;DHT22;5485;37.558;126.950;2023-02-23T07:21:33;7.80;1.00
10864;DHT22;5485;37.558;126.950;2023-02-23T07:24:01;7.70;1.00
10864;DHT22;5485;37.558;126.950;2023-02-23T07:26:30;7.70;1.00
10864;DHT22;5485;37.558;126.950;2023-02-23T07:28:59;7.70;1.00
10864;DHT22;5485;37.558;126.950;2023-02-23T07:31:26;7.70;1.00
10864;DHT22;5485;37.558;126.950;2023-02-23T07:33:54;7.80;1.00
10864;DHT22;5485;37.558;126.950;2023-02-23T07:36:22;7.60;1.00
10864;DHT22;5485;37.558;126.950;2023-02-23T07:38:49;7.60;1.00
10864;DHT22;5485;37.558;126.950;2023-02-23T07:41:16;7.60;1.00
10864;DHT22;5485;37.558;126.950;2023-02-23T07:43:43;7.50;1.00
10864;DHT22;5485;37.558;126.950;2023-02-23T07:46:10;7.30;1.00
10864;DHT22;5485;37.558;126.950;2023-02-23T07:48:39;7.10;1.00
10864;DHT22;5485;37.558;126.950;2023-02-23T07:51:11;7.00;1.00
10864;DHT22;5485;37.558;126.950;2023-02-23T07:53:39;7.00;1.00
10864;DHT22;5485;37.558;126.950;2023-02-23T07:56:07;7.00;1.00
10864;DHT22;5485;37.558;126.950;2023-02-23T07:58:41;6.90;1.00
10864;DHT22;5485;37.558;126.950;2023-02-23T08:01:09;7.00;1.00
10864;DHT22;5485;37.558;126.950;2023-02-23T08:03:36;7.00;1.00
10864;DHT22;5485;37.558;126.950;2023-02-23T08:06:04;6.90;1.00
10864;DHT22;5485;37.558;126.950;2023-02-23T08:08:31;6.80;1.00
10864;DHT22;5485;37.558;126.950;2023-02-23T08:11:02;6.80;1.00
10864;DHT22;5485;37.558;126.950;2023-02-23T08:13:29;6.80;1.00
10864;DHT22;5485;37.558;126.950;2023-02-23T08:15:57;6.80;1.00
10864;DHT22;5485;37.558;126.950;2023-02-23T08:18:24;6.80;1.00
10864;DHT22;5485;37.558;126.950;2023-02-23T08:21:00;6.80;1.00
10864;DHT22;5485;37.558;126.950;2023-02-23T08:23:31;6.70;1.00
10864;DHT22;5485;37.558;126.950;2023-02-23T08:25:59;6.70;1.00
10864;DHT22;5485;37.558;126.950;2023-02-23T08:28:27;6.70;1.00
10864;DHT22;5485;37.558;126.950;2023-02-23T08:30:54;6.60;1.00
10864;DHT22;5485;37.558;126.950;2023-02-23T08:33:22;6.60;1.00
10864;DHT22;5485;37.558;126.950;2023-02-23T08:35:49;6.50;1.00
10864;DHT22;5485;37.558;126.950;2023-02-23T08:38:18;6.50;1.00
10864;DHT22;5485;37.558;126.950;2023-02-23T08:40:45;6.40;1.00
10864;DHT22;5485;37.558;126.950;2023-02-23T08:43:12;6.40;1.00
10864;DHT22;5485;37.558;126.950;2023-02-23T08:45:39;6.40;1.00
10864;DHT22;5485;37.558;126.950;2023-02-23T08:48:06;6.30;1.00
10864;DHT22;5485;37.558;126.950;2023-02-23T08:50:34;6.20;1.00
10864;DHT22;5485;37.558;126.950;2023-02-23T08:53:01;6.10;1.00
10864;DHT22;5485;37.558;126.950;2023-02-23T08:55:29;6.00;1.00
10864;DHT22;5485;37.558;126.950;2023-02-23T08:57:56;5.90;1.00
10864;DHT22;5485;37.558;126.950;2023-02-23T09:00:23;5.80;1.00
10864;DHT22;5485;37.558;126.950;2023-02-23T09:02:50;5.70;1.00
10864;DHT22;5485;37.558;126.950;2023-02-23T09:05:17;5.70;1.00
10864;DHT22;5485;37.558;126.950;2023-02-23T09:07:44;5.60;1.00
10864;DHT22;5485;37.558;126.950;2023-02-23T09:10:17;5.50;1.00
10864;DHT22;5485;37.558;126.950;2023-02-23T09:12:45;5.40;1.00
10864;DHT22;5485;37.558;126.950;2023-02-23T09:15:12;5.30;1.00
10864;DHT22;5485;37.558;126.950;2023-02-23T09:17:39;5.20;1.00
10864;DHT22;5485;37.558;126.950;2023-02-23T09:20:11;5.10;1.00
10864;DHT22;5485;37.558;126.950;2023-02-23T09:22:39;5.00;1.00
10864;DHT22;5485;37.558;126.950;2023-02-23T09:25:10;5.00;1.00
10864;DHT22;5485;37.558;126.950;2023-02-23T09:27:37;5.00;1.00
10864;DHT22;5485;37.558;126.950;2023-02-23T09:30:05;4.90;1.00
10864;DHT22;5485;37.558;126.950;2023-02-23T09:32:32;4.90;1.00
10864;DHT22;5485;37.558;126.950;2023-02-23T09:34:59;4.80;1.00
10864;DHT22;5485;37.558;126.950;2023-02-23T09:37:25;4.70;1.00
10864;DHT22;5485;37.558;126.950;2023-02-23T09:39:52;4.60;1.00
10864;DHT22;5485;37.558;126.950;2023-02-23T09:42:36;4.70;1.00
10864;DHT22;5485;37.558;126.950;2023-02-23T09:45:40;4.60;1.00
10864;DHT22;5485;37.558;126.950;2023-02-23T09:48:16;4.50;1.00
10864;DHT22;5485;37.558;126.950;2023-02-23T09:50:50;4.50;1.00
10864;DHT22;5485;37.558;126.950;2023-02-23T09:56:09;4.40;1.00
10864;DHT22;5485;37.558;126.950;2023-02-23T09:58:37;4.40;1.00
10864;DHT22;5485;37.558;126.950;2023-02-23T10:07:35;4.20;1.00
10864;DHT22;5485;37.558;126.950;2023-02-23T10:09:46;4.20;1.00
10864;DHT22;5485;37.558;126.950;2023-02-23T10:22:53;4.10;1.00
10864;DHT22;5485;37.558;126.950;2023-02-23T10:25:26;4.10;1.00
10864;DHT22;5485;37.558;126.950;2023-02-23T10:27:54;4.00;1.00
10864;DHT22;5485;37.558;126.950;2023-02-23T10:30:23;4.00;1.00
10864;DHT22;5485;37.558;126.950;2023-02-23T10:35:23;4.00;1.00
10864;DHT22;5485;37.558;126.950;2023-02-23T10:37:51;4.00;1.00
10864;DHT22;5485;37.558;126.950;2023-02-23T10:40:26;3.90;1.00
10864;DHT22;5485;37.558;126.950;2023-02-23T10:42:57;3.90;1.00
10864;DHT22;5485;37.558;126.950;2023-02-23T10:45:27;3.90;1.00
10864;DHT22;5485;37.558;126.950;2023-02-23T10:48:01;3.80;1.00
10864;DHT22;5485;37.558;126.950;2023-02-23T10:50:30;3.80;1.00
10864;DHT22;5485;37.558;126.950;2023-02-23T10:53:13;3.80;1.00
10864;DHT22;5485;37.558;126.950;2023-02-23T10:55:44;3.80;1.00
10864;DHT22;5485;37.558;126.950;2023-02-23T10:58:17;3.80;1.00
10864;DHT22;5485;37.558;126.950;2023-02-23T11:00:56;3.80;1.00
10864;DHT22;5485;37.558;126.950;2023-02-23T11:03:40;3.80;1.00
10864;DHT22;5485;37.558;126.950;2023-02-23T11:08:55;3.70;1.00
10864;DHT22;5485;37.558;126.950;2023-02-23T11:11:27;3.70;1.00
10864;DHT22;5485;37.558;126.950;2023-02-23T11:13:56;3.80;1.00
10864;DHT22;5485;37.558;126.950;2023-02-23T11:16:37;3.70;1.00
10864;DHT22;5485;37.558;126.950;2023-02-23T11:19:23;3.60;1.00
10864;DHT22;5485;37.558;126.950;2023-02-23T11:21:51;3.50;1.00
10864;DHT22;5485;37.558;126.950;2023-02-23T11:24:31;3.50;1.00
10864;DHT22;5485;37.558;126.950;2023-02-23T11:27:01;3.50;1.00
10864;DHT22;5485;37.558;126.950;2023-02-23T11:29:51;3.50;1.00
10864;DHT22;5485;37.558;126.950;2023-02-23T11:32:27;3.50;1.00
10864;DHT22;5485;37.558;126.950;2023-02-23T11:38:14;3.50;1.00
10864;DHT22;5485;37.558;126.950;2023-02-23T11:40:41;3.50;1.00
10864;DHT22;5485;37.558;126.950;2023-02-23T11:43:13;3.50;1.00
10864;DHT22;5485;37.558;126.950;2023-02-23T11:45:47;3.50;1.00
10864;DHT22;5485;37.558;126.950;2023-02-23T11:48:31;3.40;1.00
10864;DHT22;5485;37.558;126.950;2023-02-23T11:50:59;3.40;1.00
10864;DHT22;5485;37.558;126.950;2023-02-23T11:53:34;3.40;1.00
10864;DHT22;5485;37.558;126.950;2023-02-23T11:56:03;3.40;1.00
10864;DHT22;5485;37.558;126.950;2023-02-23T11:58:47;3.30;1.00
10864;DHT22;5485;37.558;126.950;2023-02-23T12:01:19;3.30;1.00
10864;DHT22;5485;37.558;126.950;2023-02-23T12:03:56;3.20;1.00
10864;DHT22;5485;37.558;126.950;2023-02-23T12:09:28;3.20;1.00
10864;DHT22;5485;37.558;126.950;2023-02-23T12:12:14;3.20;1.00
10864;DHT22;5485;37.558;126.950;2023-02-23T12:14:50;3.20;1.00
10864;DHT22;5485;37.558;126.950;2023-02-23T12:17:27;3.30;1.00
10864;DHT22;5485;37.558;126.950;2023-02-23T12:19:59;3.30;1.00
10864;DHT22;5485;37.558;126.950;2023-02-23T12:22:41;3.30;1.00
10864;DHT22;5485;37.558;126.950;2023-02-23T12:25:34;3.30;1.00
10864;DHT22;5485;37.558;126.950;2023-02-23T12:28:16;3.30;1.00
10864;DHT22;5485;37.558;126.950;2023-02-23T12:33:46;3.30;1.00
10864;DHT22;5485;37.558;126.950;2023-02-23T12:36:48;3.30;1.00
10864;DHT22;5485;37.558;126.950;2023-02-23T12:41:50;3.20;1.00
10864;DHT22;5485;37.558;126.950;2023-02-23T12:47:32;3.30;1.00
10864;DHT22;5485;37.558;126.950;2023-02-23T12:52:57;3.30;1.00
10864;DHT22;5485;37.558;126.950;2023-02-23T12:55:36;3.20;1.00
10864;DHT22;5485;37.558;126.950;2023-02-23T13:06:03;3.30;1.00
10864;DHT22;5485;37.558;126.950;2023-02-23T13:14:32;3.30;1.00
10864;DHT22;5485;37.558;126.950;2023-02-23T13:16:56;3.30;1.00
10864;DHT22;5485;37.558;126.950;2023-02-23T13:19:41;3.30;1.00
10864;DHT22;5485;37.558;126.950;2023-02-23T13:22:36;3.30;1.00
10864;DHT22;5485;37.558;126.950;2023-02-23T13:25:32;3.30;1.00
10864;DHT22;5485;37.558;126.950;2023-02-23T13:28:05;3.30;1.00
10864;DHT22;5485;37.558;126.950;2023-02-23T13:30:32;3.20;1.00
10864;DHT22;5485;37.558;126.950;2023-02-23T13:33:07;3.20;1.00
10864;DHT22;5485;37.558;126.950;2023-02-23T13:35:37;3.20;1.00
10864;DHT22;5485;37.558;126.950;2023-02-23T13:44:00;3.10;1.00
10864;DHT22;5485;37.558;126.950;2023-02-23T13:46:59;3.10;1.00
10864;DHT22;5485;37.558;126.950;2023-02-23T13:52:38;3.10;1.00
10864;DHT22;5485;37.558;126.950;2023-02-23T14:00:30;3.00;1.00
10864;DHT22;5485;37.558;126.950;2023-02-23T14:03:03;3.00;1.00
10864;DHT22;5485;37.558;126.950;2023-02-23T14:05:36;3.00;1.00
10864;DHT22;5485;37.558;126.950;2023-02-23T14:08:07;2.90;1.00
10864;DHT22;5485;37.558;126.950;2023-02-23T14:10:42;2.90;1.00
10864;DHT22;5485;37.558;126.950;2023-02-23T14:15:47;2.90;1.00
10864;DHT22;5485;37.558;126.950;2023-02-23T14:24:02;2.80;1.00
10864;DHT22;5485;37.558;126.950;2023-02-23T14:31:37;2.80;1.00
10864;DHT22;5485;37.558;126.950;2023-02-23T14:34:11;2.80;1.00
10864;DHT22;5485;37.558;126.950;2023-02-23T14:36:42;2.70;1.00
10864;DHT22;5485;37.558;126.950;2023-02-23T14:44:23;2.70;1.00
10864;DHT22;5485;37.558;126.950;2023-02-23T14:47:06;2.70;1.00
10864;DHT22;5485;37.558;126.950;2023-02-23T14:49:41;2.70;1.00
10864;DHT22;5485;37.558;126.950;2023-02-23T14:54:46;2.70;1.00
10864;DHT22;5485;37.558;126.950;2023-02-23T14:57:24;2.70;1.00
10864;DHT22;5485;37.558;126.950;2023-02-23T15:00:05;2.70;1.00
10864;DHT22;5485;37.558;126.950;2023-02-23T15:02:34;2.60;1.00
10864;DHT22;5485;37.558;126.950;2023-02-23T15:05:14;2.60;1.00
10864;DHT22;5485;37.558;126.950;2023-02-23T15:07:41;2.60;1.00
10864;DHT22;5485;37.558;126.950;2023-02-23T15:10:23;2.60;1.00
10864;DHT22;5485;37.558;126.950;2023-02-23T15:12:52;2.50;1.00
10864;DHT22;5485;37.558;126.950;2023-02-23T15:15:23;2.50;1.00
10864;DHT22;5485;37.558;126.950;2023-02-23T15:17:53;2.40;1.00
10864;DHT22;5485;37.558;126.950;2023-02-23T15:20:23;2.40;1.00
10864;DHT22;5485;37.558;126.950;2023-02-23T15:22:55;2.50;1.00
10864;DHT22;5485;37.558;126.950;2023-02-23T15:25:40;2.50;1.00
10864;DHT22;5485;37.558;126.950;2023-02-23T15:28:20;2.50;1.00
10864;DHT22;5485;37.558;126.950;2023-02-23T15:30:49;2.60;1.00
10864;DHT22;5485;37.558;126.950;2023-02-23T15:33:18;2.70;1.00
10864;DHT22;5485;37.558;126.950;2023-02-23T15:36:21;2.70;1.00
10864;DHT22;5485;37.558;126.950;2023-02-23T15:38:53;2.80;1.00
10864;DHT22;5485;37.558;126.950;2023-02-23T15:41:29;2.80;1.00
10864;DHT22;5485;37.558;126.950;2023-02-23T15:44:23;2.80;1.00
10864;DHT22;5485;37.558;126.950;2023-02-23T15:46:57;2.90;1.00
10864;DHT22;5485;37.558;126.950;2023-02-23T15:49:31;2.90;1.00
10864;DHT22;5485;37.558;126.950;2023-02-23T15:52:07;2.90;1.00
10864;DHT22;5485;37.558;126.950;2023-02-23T15:54:56;2.90;1.00
10864;DHT22;5485;37.558;126.950;2023-02-23T15:57:32;2.80;1.00
10864;DHT22;5485;37.558;126.950;2023-02-23T16:00:09;2.80;1.00
10864;DHT22;5485;37.558;126.950;2023-02-23T16:02:42;2.90;1.00
10864;DHT22;5485;37.558;126.950;2023-02-23T16:05:19;2.90;1.00
10864;DHT22;5485;37.558;126.950;2023-02-23T16:07:46;2.80;1.00
10864;DHT22;5485;37.558;126.950;2023-02-23T16:10:24;2.70;1.00
10864;DHT22;5485;37.558;126.950;2023-02-23T16:12:53;2.70;1.00
10864;DHT22;5485;37.558;126.950;2023-02-23T16:15:26;2.70;1.00
10864;DHT22;5485;37.558;126.950;2023-02-23T16:18:01;2.70;1.00
10864;DHT22;5485;37.558;126.950;2023-02-23T16:20:35;2.60;1.00
10864;DHT22;5485;37.558;126.950;2023-02-23T16:23:12;2.60;1.00
10864;DHT22;5485;37.558;126.950;2023-02-23T16:25:41;2.50;1.00
10864;DHT22;5485;37.558;126.950;2023-02-23T16:28:13;2.60;1.00
10864;DHT22;5485;37.558;126.950;2023-02-23T16:30:49;2.60;1.00
10864;DHT22;5485;37.558;126.950;2023-02-23T16:33:22;2.70;1.00
10864;DHT22;5485;37.558;126.950;2023-02-23T16:35:53;2.80;1.00
10864;DHT22;5485;37.558;126.950;2023-02-23T16:38:55;2.80;1.00
10864;DHT22;5485;37.558;126.950;2023-02-23T16:41:24;2.90;1.00
10864;DHT22;5485;37.558;126.950;2023-02-23T16:43:53;3.00;1.00
10864;DHT22;5485;37.558;126.950;2023-02-23T16:46:22;3.00;1.00
10864;DHT22;5485;37.558;126.950;2023-02-23T16:48:50;3.10;1.00
10864;DHT22;5485;37.558;126.950;2023-02-23T16:51:20;3.10;1.00
10864;DHT22;5485;37.558;126.950;2023-02-23T16:53:50;3.10;1.00
10864;DHT22;5485;37.558;126.950;2023-02-23T16:56:19;3.30;1.00
10864;DHT22;5485;37.558;126.950;2023-02-23T16:58:49;3.30;1.00
10864;DHT22;5485;37.558;126.950;2023-02-23T17:01:18;3.30;1.00
10864;DHT22;5485;37.558;126.950;2023-02-23T17:03:45;3.40;1.00
10864;DHT22;5485;37.558;126.950;2023-02-23T17:06:12;3.30;1.00
10864;DHT22;5485;37.558;126.950;2023-02-23T17:08:40;3.40;1.00
10864;DHT22;5485;37.558;126.950;2023-02-23T17:11:09;3.40;1.00
10864;DHT22;5485;37.558;126.950;2023-02-23T17:13:36;3.40;1.00
10864;DHT22;5485;37.558;126.950;2023-02-23T17:16:05;3.40;1.00
10864;DHT22;5485;37.558;126.950;2023-02-23T17:18:35;3.40;1.00
10864;DHT22;5485;37.558;126.950;2023-02-23T17:21:08;3.40;1.00
10864;DHT22;5485;37.558;126.950;2023-02-23T17:23:38;3.40;1.00
10864;DHT22;5485;37.558;126.950;2023-02-23T17:26:23;3.40;1.00
10864;DHT22;5485;37.558;126.950;2023-02-23T17:28:51;3.50;1.00
10864;DHT22;5485;37.558;126.950;2023-02-23T17:31:19;3.50;1.00
10864;DHT22;5485;37.558;126.950;2023-02-23T17:33:46;3.50;1.00
10864;DHT22;5485;37.558;126.950;2023-02-23T17:36:16;3.50;1.00
10864;DHT22;5485;37.558;126.950;2023-02-23T17:38:43;3.50;1.00
10864;DHT22;5485;37.558;126.950;2023-02-23T17:41:16;3.40;1.00
10864;DHT22;5485;37.558;126.950;2023-02-23T17:43:44;3.50;1.00
10864;DHT22;5485;37.558;126.950;2023-02-23T17:46:12;3.50;1.00
10864;DHT22;5485;37.558;126.950;2023-02-23T17:48:39;3.50;1.00
10864;DHT22;5485;37.558;126.950;2023-02-23T17:51:10;3.50;1.00
10864;DHT22;5485;37.558;126.950;2023-02-23T17:53:38;3.50;1.00
10864;DHT22;5485;37.558;126.950;2023-02-23T17:56:06;3.50;1.00
10864;DHT22;5485;37.558;126.950;2023-02-23T17:58:33;3.50;1.00
10864;DHT22;5485;37.558;126.950;2023-02-23T18:01:02;3.50;1.00
10864;DHT22;5485;37.558;126.950;2023-02-23T18:03:31;3.50;1.00
10864;DHT22;5485;37.558;126.950;2023-02-23T18:06:06;3.50;1.00
10864;DHT22;5485;37.558;126.950;2023-02-23T18:08:34;3.50;1.00
10864;DHT22;5485;37.558;126.950;2023-02-23T18:11:02;3.40;1.00
10864;DHT22;5485;37.558;126.950;2023-02-23T18:13:30;3.40;1.00
10864;DHT22;5485;37.558;126.950;2023-02-23T18:16:01;3.30;1.00
10864;DHT22;5485;37.558;126.950;2023-02-23T18:18:28;3.30;1.00
10864;DHT22;5485;37.558;126.950;2023-02-23T18:20:58;3.30;1.00
10864;DHT22;5485;37.558;126.950;2023-02-23T18:23:27;3.30;1.00
10864;DHT22;5485;37.558;126.950;2023-02-23T18:26:03;3.30;1.00
10864;DHT22;5485;37.558;126.950;2023-02-23T18:28:31;3.30;1.00
10864;DHT22;5485;37.558;126.950;2023-02-23T18:30:58;3.20;1.00
10864;DHT22;5485;37.558;126.950;2023-02-23T18:33:25;3.30;1.00